sensor_id;sensor_type;location;lat;lon;timestamp;pressure;altitude;pressure_sealevel;temperature;humidity
19114;BME280;9689;51.052;13.772;2023-11-21T00:00:05;99608.00;;;9.11;82.66
19114;BME280;9689;51.052;13.772;2023-11-21T00:05:12;99611.56;;;9.08;82.34
19114;BME280;9689;51.052;13.772;2023-11-21T00:10:15;99608.19;;;9.04;82.57
19114;BME280;9689;51.052;13.772;2023-11-21T00:15:17;99606.41;;;9.06;82.60
19114;BME280;9689;51.052;13.772;2023-11-21T00:20:18;99619.38;;;9.06;82.90
19114;BME280;9689;51.052;13.772;2023-11-21T00:25:20;99620.19;;;9.09;83.54
19114;BME280;9689;51.052;13.772;2023-11-21T00:30:21;99610.88;;;9.00;83.76
19114;BME280;9689;51.052;13.772;2023-11-21T00:35:22;99612.50;;;9.05;82.98
19114;BME280;9689;51.052;13.772;2023-11-21T00:40:25;99613.88;;;9.19;83.04
19114;BME280;9689;51.052;13.772;2023-11-21T00:45:25;99623.66;;;9.09;84.09
19114;BME280;9689;51.052;13.772;2023-11-21T00:50:26;99630.69;;;9.05;84.17
19114;BME280;9689;51.052;13.772;2023-11-21T00:55:30;99636.91;;;8.98;84.17
19114;BME280;9689;51.052;13.772;2023-11-21T01:00:31;99635.25;;;8.94;84.18
19114;BME280;9689;51.052;13.772;2023-11-21T01:05:32;99636.16;;;8.95;85.14
19114;BME280;9689;51.052;13.772;2023-11-21T01:10:35;99645.28;;;9.10;84.60
19114;BME280;9689;51.052;13.772;2023-11-21T01:15:36;99643.06;;;8.96;84.76
19114;BME280;9689;51.052;13.772;2023-11-21T01:20:37;99647.97;;;9.06;83.85
19114;BME280;9689;51.052;13.772;2023-11-21T01:25:40;99645.34;;;9.08;84.07
19114;BME280;9689;51.052;13.772;2023-11-21T01:30:42;99647.78;;;9.14;83.77
19114;BME280;9689;51.052;13.772;2023-11-21T01:35:44;99644.66;;;9.00;84.29
19114;BME280;9689;51.052;13.772;2023-11-21T01:40:47;99640.22;;;9.05;84.67
19114;BME280;9689;51.052;13.772;2023-11-21T01:45:49;99639.50;;;8.98;84.57
19114;BME280;9689;51.052;13.772;2023-11-21T01:50:50;99648.06;;;9.03;84.44
19114;BME280;9689;51.052;13.772;2023-11-21T01:55:53;99648.03;;;9.05;84.17
19114;BME280;9689;51.052;13.772;2023-11-21T02:00:58;99645.53;;;9.00;83.89
19114;BME280;9689;51.052;13.772;2023-11-21T02:06:01;99649.78;;;9.03;84.82
19114;BME280;9689;51.052;13.772;2023-11-21T02:11:04;99640.22;;;9.05;84.93
19114;BME280;9689;51.052;13.772;2023-11-21T02:16:06;99654.03;;;9.07;83.87
19114;BME280;9689;51.052;13.772;2023-11-21T02:21:07;99657.56;;;9.03;84.61
19114;BME280;9689;51.052;13.772;2023-11-21T02:26:11;99665.28;;;9.07;84.54
19114;BME280;9689;51.052;13.772;2023-11-21T02:31:11;99661.91;;;9.04;83.76
19114;BME280;9689;51.052;13.772;2023-11-21T02:36:12;99652.38;;;9.04;84.52
19114;BME280;9689;51.052;13.772;2023-11-21T02:41:15;99656.13;;;8.91;85.33
19114;BME280;9689;51.052;13.772;2023-11-21T02:46:15;99660.44;;;8.92;85.49
19114;BME280;9689;51.052;13.772;2023-11-21T02:51:16;99667.50;;;8.86;85.43
19114;BME280;9689;51.052;13.772;2023-11-21T02:56:18;99666.88;;;8.76;85.06
19114;BME280;9689;51.052;13.772;2023-11-21T03:01:20;99666.44;;;8.57;85.34
19114;BME280;9689;51.052;13.772;2023-11-21T03:06:21;99670.53;;;8.67;85.13
19114;BME280;9689;51.052;13.772;2023-11-21T03:11:23;99681.03;;;8.63;84.56
19114;BME280;9689;51.052;13.772;2023-11-21T03:16:24;99670.75;;;8.58;85.43
19114;BME280;9689;51.052;13.772;2023-11-21T03:21:25;99676.06;;;8.54;85.11
19114;BME280;9689;51.052;13.772;2023-11-21T03:26:28;99682.09;;;8.54;84.56
19114;BME280;9689;51.052;13.772;2023-11-21T03:31:29;99678.69;;;8.50;84.92
19114;BME280;9689;51.052;13.772;2023-11-21T03:36:30;99685.09;;;8.33;85.25
19114;BME280;9689;51.052;13.772;2023-11-21T03:41:32;99681.59;;;8.37;84.83
19114;BME280;9689;51.052;13.772;2023-11-21T03:46:33;99691.91;;;8.40;85.43
19114;BME280;9689;51.052;13.772;2023-11-21T03:51:34;99687.81;;;8.28;85.96
19114;BME280;9689;51.052;13.772;2023-11-21T03:56:37;99692.88;;;8.33;85.16
19114;BME280;9689;51.052;13.772;2023-11-21T04:01:38;99702.56;;;8.25;85.36
19114;BME280;9689;51.052;13.772;2023-11-21T04:06:39;99696.38;;;8.32;85.72
19114;BME280;9689;51.052;13.772;2023-11-21T04:11:41;99702.56;;;8.25;85.95
19114;BME280;9689;51.052;13.772;2023-11-21T04:16:42;99696.78;;;8.12;86.33
19114;BME280;9689;51.052;13.772;2023-11-21T04:21:43;99698.28;;;8.23;85.85
19114;BME280;9689;51.052;13.772;2023-11-21T04:26:45;99695.47;;;8.34;85.10
19114;BME280;9689;51.052;13.772;2023-11-21T04:31:46;99711.28;;;8.22;85.76
19114;BME280;9689;51.052;13.772;2023-11-21T04:36:49;99708.09;;;8.09;86.36
19114;BME280;9689;51.052;13.772;2023-11-21T04:41:51;99721.84;;;8.13;86.39
19114;BME280;9689;51.052;13.772;2023-11-21T04:46:52;99727.88;;;8.13;86.23
19114;BME280;9689;51.052;13.772;2023-11-21T04:51:53;99735.38;;;8.29;86.66
19114;BME280;9689;51.052;13.772;2023-11-21T04:56:55;99733.56;;;8.35;85.30
19114;BME280;9689;51.052;13.772;2023-11-21T05:01:56;99738.59;;;8.41;85.47
19114;BME280;9689;51.052;13.772;2023-11-21T05:06:57;99724.94;;;8.32;85.87
19114;BME280;9689;51.052;13.772;2023-11-21T05:11:59;99736.16;;;8.35;84.98
19114;BME280;9689;51.052;13.772;2023-11-21T05:17:00;99740.28;;;8.45;84.75
19114;BME280;9689;51.052;13.772;2023-11-21T05:22:03;99756.03;;;8.36;85.29
19114;BME280;9689;51.052;13.772;2023-11-21T05:27:06;99748.91;;;8.46;84.80
19114;BME280;9689;51.052;13.772;2023-11-21T05:32:09;99755.19;;;8.34;84.74
19114;BME280;9689;51.052;13.772;2023-11-21T05:37:10;99761.16;;;8.39;85.01
19114;BME280;9689;51.052;13.772;2023-11-21T05:42:12;99763.69;;;8.44;84.64
19114;BME280;9689;51.052;13.772;2023-11-21T05:47:13;99763.78;;;8.38;85.06
19114;BME280;9689;51.052;13.772;2023-11-21T05:52:14;99765.47;;;8.40;85.05
19114;BME280;9689;51.052;13.772;2023-11-21T05:57:16;99763.94;;;8.29;85.45
19114;BME280;9689;51.052;13.772;2023-11-21T06:02:17;99772.53;;;8.31;86.20
19114;BME280;9689;51.052;13.772;2023-11-21T06:07:18;99768.31;;;8.27;86.22
19114;BME280;9689;51.052;13.772;2023-11-21T06:12:20;99775.34;;;8.20;86.63
19114;BME280;9689;51.052;13.772;2023-11-21T06:17:21;99781.47;;;8.16;86.87
19114;BME280;9689;51.052;13.772;2023-11-21T06:22:24;99794.97;;;8.36;85.47
19114;BME280;9689;51.052;13.772;2023-11-21T06:27:26;99787.94;;;8.41;85.18
19114;BME280;9689;51.052;13.772;2023-11-21T06:32:27;99789.69;;;8.41;84.83
19114;BME280;9689;51.052;13.772;2023-11-21T06:37:29;99800.03;;;8.42;85.70
19114;BME280;9689;51.052;13.772;2023-11-21T06:42:32;99811.47;;;8.31;85.84
19114;BME280;9689;51.052;13.772;2023-11-21T06:47:33;99804.59;;;8.30;86.47
19114;BME280;9689;51.052;13.772;2023-11-21T06:52:35;99807.13;;;8.33;86.00
19114;BME280;9689;51.052;13.772;2023-11-21T06:57:37;99806.22;;;8.34;86.08
19114;BME280;9689;51.052;13.772;2023-11-21T07:02:38;99814.09;;;8.31;85.69
19114;BME280;9689;51.052;13.772;2023-11-21T07:07:39;99815.34;;;8.10;86.87
19114;BME280;9689;51.052;13.772;2023-11-21T07:12:41;99818.94;;;8.01;88.65
19114;BME280;9689;51.052;13.772;2023-11-21T07:17:42;99823.94;;;8.12;89.22
19114;BME280;9689;51.052;13.772;2023-11-21T07:22:44;99825.53;;;8.20;88.35
19114;BME280;9689;51.052;13.772;2023-11-21T07:27:46;99831.47;;;8.27;88.31
19114;BME280;9689;51.052;13.772;2023-11-21T07:32:46;99836.72;;;8.22;88.84
19114;BME280;9689;51.052;13.772;2023-11-21T07:37:47;99843.72;;;8.19;88.96
19114;BME280;9689;51.052;13.772;2023-11-21T07:42:50;99842.50;;;8.40;87.74
19114;BME280;9689;51.052;13.772;2023-11-21T07:47:51;99851.25;;;8.33;88.39
19114;BME280;9689;51.052;13.772;2023-11-21T07:52:52;99860.63;;;8.43;87.25
19114;BME280;9689;51.052;13.772;2023-11-21T07:57:55;99861.31;;;8.53;86.45
19114;BME280;9689;51.052;13.772;2023-11-21T08:02:56;99867.88;;;8.72;85.35
19114;BME280;9689;51.052;13.772;2023-11-21T08:07:57;99862.84;;;8.63;85.48
19114;BME280;9689;51.052;13.772;2023-11-21T08:12:59;99862.88;;;8.61;86.18
19114;BME280;9689;51.052;13.772;2023-11-21T08:18:00;99866.50;;;8.51;86.61
19114;BME280;9689;51.052;13.772;2023-11-21T08:23:01;99870.34;;;8.30;88.74
19114;BME280;9689;51.052;13.772;2023-11-21T08:28:04;99873.16;;;8.18;90.41
19114;BME280;9689;51.052;13.772;2023-11-21T08:33:05;99875.91;;;8.09;91.79
19114;BME280;9689;51.052;13.772;2023-11-21T08:38:05;99873.41;;;8.03;93.23
19114;BME280;9689;51.052;13.772;2023-11-21T08:43:08;99875.88;;;8.10;95.08
19114;BME280;9689;51.052;13.772;2023-11-21T08:48:11;99876.91;;;7.99;95.12
19114;BME280;9689;51.052;13.772;2023-11-21T08:53:12;99873.41;;;8.03;95.71
19114;BME280;9689;51.052;13.772;2023-11-21T08:58:15;99883.84;;;8.00;96.94
19114;BME280;9689;51.052;13.772;2023-11-21T09:03:15;99892.69;;;7.86;97.60
19114;BME280;9689;51.052;13.772;2023-11-21T09:08:16;99897.22;;;7.74;98.80
19114;BME280;9689;51.052;13.772;2023-11-21T09:13:18;99911.13;;;7.68;99.44
19114;BME280;9689;51.052;13.772;2023-11-21T09:18:22;99915.50;;;7.63;100.00
19114;BME280;9689;51.052;13.772;2023-11-21T09:23:23;99915.50;;;7.66;100.00
19114;BME280;9689;51.052;13.772;2023-11-21T09:28:26;99918.81;;;7.73;100.00
19114;BME280;9689;51.052;13.772;2023-11-21T09:33:26;99931.91;;;7.67;100.00
19114;BME280;9689;51.052;13.772;2023-11-21T09:38:27;99918.97;;;7.65;100.00
19114;BME280;9689;51.052;13.772;2023-11-21T09:43:30;99934.53;;;7.65;100.00
19114;BME280;9689;51.052;13.772;2023-11-21T09:48:34;99937.38;;;7.45;100.00
19114;BME280;9689;51.052;13.772;2023-11-21T09:53:37;99950.72;;;7.15;100.00
19114;BME280;9689;51.052;13.772;2023-11-21T09:58:39;99952.66;;;6.96;100.00
19114;BME280;9689;51.052;13.772;2023-11-21T10:03:40;99962.19;;;6.95;100.00
19114;BME280;9689;51.052;13.772;2023-11-21T10:08:42;99964.22;;;6.64;100.00
19114;BME280;9689;51.052;13.772;2023-11-21T10:13:55;99976.53;;;6.33;100.00
19114;BME280;9689;51.052;13.772;2023-11-21T10:18:59;99979.13;;;6.36;100.00
19114;BME280;9689;51.052;13.772;2023-11-21T10:24:10;99994.84;;;6.07;100.00
19114;BME280;9689;51.052;13.772;2023-11-21T10:29:13;99999.22;;;5.90;100.00
19114;BME280;9689;51.052;13.772;2023-11-21T10:34:17;100011.25;;;6.06;100.00
19114;BME280;9689;51.052;13.772;2023-11-21T10:39:18;100025.81;;;6.19;96.75
19114;BME280;9689;51.052;13.772;2023-11-21T10:44:21;100018.69;;;6.52;97.20
19114;BME280;9689;51.052;13.772;2023-11-21T10:49:25;100033.47;;;6.36;95.55
19114;BME280;9689;51.052;13.772;2023-11-21T10:54:26;100035.25;;;6.30;95.81
19114;BME280;9689;51.052;13.772;2023-11-21T10:59:30;100038.72;;;6.22;94.77
19114;BME280;9689;51.052;13.772;2023-11-21T11:04:33;100040.28;;;6.46;96.15
19114;BME280;9689;51.052;13.772;2023-11-21T11:09:38;100042.91;;;6.42;92.57
19114;BME280;9689;51.052;13.772;2023-11-21T11:14:41;100050.53;;;6.60;90.27
19114;BME280;9689;51.052;13.772;2023-11-21T11:19:43;100062.06;;;6.15;89.23
19114;BME280;9689;51.052;13.772;2023-11-21T11:24:57;100063.91;;;5.94;89.44
19114;BME280;9689;51.052;13.772;2023-11-21T11:30:14;100067.44;;;5.69;88.64
19114;BME280;9689;51.052;13.772;2023-11-21T11:35:26;100070.00;;;5.71;90.02
19114;BME280;9689;51.052;13.772;2023-11-21T11:40:39;100072.63;;;5.67;89.46
19114;BME280;9689;51.052;13.772;2023-11-21T11:45:43;100082.09;;;5.67;89.75
19114;BME280;9689;51.052;13.772;2023-11-21T11:51:05;100075.19;;;5.69;90.68
19114;BME280;9689;51.052;13.772;2023-11-21T11:56:28;100092.44;;;5.68;90.05
19114;BME280;9689;51.052;13.772;2023-11-21T12:01:33;100083.81;;;5.74;89.94
19114;BME280;9689;51.052;13.772;2023-11-21T12:06:34;100082.91;;;5.78;90.26
19114;BME280;9689;51.052;13.772;2023-11-21T12:11:36;100086.41;;;5.66;89.33
19114;BME280;9689;51.052;13.772;2023-11-21T12:16:39;100099.34;;;5.56;89.91
19114;BME280;9689;51.052;13.772;2023-11-21T12:21:40;100108.84;;;5.46;90.21
19114;BME280;9689;51.052;13.772;2023-11-21T12:26:42;100118.38;;;5.30;91.23
19114;BME280;9689;51.052;13.772;2023-11-21T12:31:45;100133.91;;;5.23;90.38
19114;BME280;9689;51.052;13.772;2023-11-21T12:36:46;100131.31;;;5.21;90.48
19114;BME280;9689;51.052;13.772;2023-11-21T12:41:49;100133.91;;;5.14;91.18
19114;BME280;9689;51.052;13.772;2023-11-21T12:46:52;100135.59;;;5.27;92.40
19114;BME280;9689;51.052;13.772;2023-11-21T12:51:53;100139.06;;;5.14;93.36
19114;BME280;9689;51.052;13.772;2023-11-21T12:56:53;100148.53;;;5.13;93.54
19114;BME280;9689;51.052;13.772;2023-11-21T13:01:55;100162.31;;;4.97;93.71
19114;BME280;9689;51.052;13.772;2023-11-21T13:07:03;100173.50;;;4.88;94.25
19114;BME280;9689;51.052;13.772;2023-11-21T13:12:07;100171.75;;;4.72;94.55
19114;BME280;9689;51.052;13.772;2023-11-21T13:17:10;100186.38;;;4.61;96.23
19114;BME280;9689;51.052;13.772;2023-11-21T13:22:12;100192.34;;;4.55;97.51
19114;BME280;9689;51.052;13.772;2023-11-21T13:27:13;100188.91;;;4.58;98.37
19114;BME280;9689;51.052;13.772;2023-11-21T13:32:16;100188.91;;;4.50;99.14
19114;BME280;9689;51.052;13.772;2023-11-21T13:37:20;100215.59;;;4.63;100.00
19114;BME280;9689;51.052;13.772;2023-11-21T13:42:22;100200.97;;;4.52;99.93
19114;BME280;9689;51.052;13.772;2023-11-21T13:47:26;100215.50;;;4.28;98.21
19114;BME280;9689;51.052;13.772;2023-11-21T13:52:30;100221.50;;;4.28;97.72
19114;BME280;9689;51.052;13.772;2023-11-21T13:57:33;100230.13;;;4.33;98.22
19114;BME280;9689;51.052;13.772;2023-11-21T14:02:35;100236.09;;;4.21;97.28
19114;BME280;9689;51.052;13.772;2023-11-21T14:07:42;100237.81;;;4.18;98.03
19114;BME280;9689;51.052;13.772;2023-11-21T14:12:47;100248.03;;;4.07;96.40
19114;BME280;9689;51.052;13.772;2023-11-21T14:17:49;100257.44;;;3.99;95.27
19114;BME280;9689;51.052;13.772;2023-11-21T14:22:50;100271.13;;;3.87;96.48
19114;BME280;9689;51.052;13.772;2023-11-21T14:27:51;100262.59;;;3.99;95.84
19114;BME280;9689;51.052;13.772;2023-11-21T14:32:53;100266.03;;;3.96;96.72
19114;BME280;9689;51.052;13.772;2023-11-21T14:37:54;100272.09;;;4.03;97.22
19114;BME280;9689;51.052;13.772;2023-11-21T14:42:56;100283.94;;;3.74;96.51
19114;BME280;9689;51.052;13.772;2023-11-21T14:47:58;100283.78;;;3.54;95.59
19114;BME280;9689;51.052;13.772;2023-11-21T14:53:05;100303.59;;;3.59;94.74
19114;BME280;9689;51.052;13.772;2023-11-21T14:58:07;100311.25;;;3.52;94.66
19114;BME280;9689;51.052;13.772;2023-11-21T15:03:13;100318.09;;;3.48;94.85
19114;BME280;9689;51.052;13.772;2023-11-21T15:08:34;100328.31;;;3.39;94.47
19114;BME280;9689;51.052;13.772;2023-11-21T15:13:36;100329.09;;;3.32;93.44
19114;BME280;9689;51.052;13.772;2023-11-21T15:18:38;100331.59;;;3.26;92.89
19114;BME280;9689;51.052;13.772;2023-11-21T15:23:39;100331.63;;;3.27;92.02
19114;BME280;9689;51.052;13.772;2023-11-21T15:28:41;100328.19;;;3.30;93.38
19114;BME280;9689;51.052;13.772;2023-11-21T15:33:43;100343.69;;;3.31;92.33
19114;BME280;9689;51.052;13.772;2023-11-21T15:38:44;100352.28;;;3.33;92.82
19114;BME280;9689;51.052;13.772;2023-11-21T15:43:45;100359.25;;;3.42;93.28
19114;BME280;9689;51.052;13.772;2023-11-21T15:48:49;100382.50;;;3.48;92.48
19114;BME280;9689;51.052;13.772;2023-11-21T15:53:53;100381.59;;;3.46;93.17
19114;BME280;9689;51.052;13.772;2023-11-21T15:58:54;100380.72;;;3.43;93.87
19114;BME280;9689;51.052;13.772;2023-11-21T16:03:57;100394.47;;;3.45;94.54
19114;BME280;9689;51.052;13.772;2023-11-21T16:09:00;100387.50;;;3.37;96.63
19114;BME280;9689;51.052;13.772;2023-11-21T16:14:01;100392.72;;;3.39;97.12
19114;BME280;9689;51.052;13.772;2023-11-21T16:19:03;100403.88;;;3.41;96.45
19114;BME280;9689;51.052;13.772;2023-11-21T16:24:04;100412.56;;;3.49;97.95
19114;BME280;9689;51.052;13.772;2023-11-21T16:29:06;100412.47;;;3.42;97.42
19114;BME280;9689;51.052;13.772;2023-11-21T16:34:13;100426.19;;;3.39;97.09
19114;BME280;9689;51.052;13.772;2023-11-21T16:39:19;100428.78;;;3.39;97.18
19114;BME280;9689;51.052;13.772;2023-11-21T16:44:21;100445.03;;;3.35;97.42
19114;BME280;9689;51.052;13.772;2023-11-21T16:49:24;100452.75;;;3.36;98.79
19114;BME280;9689;51.052;13.772;2023-11-21T16:54:26;100459.84;;;2.86;97.45
19114;BME280;9689;51.052;13.772;2023-11-21T16:59:27;100491.38;;;2.70;97.87
19114;BME280;9689;51.052;13.772;2023-11-21T17:04:29;100468.75;;;2.50;97.08
19114;BME280;9689;51.052;13.772;2023-11-21T17:09:33;100468.75;;;2.50;97.08
19114;BME280;9689;51.052;13.772;2023-11-21T17:14:34;100489.31;;;2.47;97.83
19114;BME280;9689;51.052;13.772;2023-11-21T17:19:36;100493.00;;;2.65;98.62
19114;BME280;9689;51.052;13.772;2023-11-21T17:24:42;100496.41;;;2.64;97.15
19114;BME280;9689;51.052;13.772;2023-11-21T17:29:44;100503.28;;;2.65;97.04
19114;BME280;9689;51.052;13.772;2023-11-21T17:34:46;100507.56;;;2.63;98.44
19114;BME280;9689;51.052;13.772;2023-11-21T17:39:47;100513.63;;;2.69;96.88
19114;BME280;9689;51.052;13.772;2023-11-21T17:44:48;100517.03;;;2.65;96.80
19114;BME280;9689;51.052;13.772;2023-11-21T17:49:51;100524.63;;;2.58;96.85
19114;BME280;9689;51.052;13.772;2023-11-21T17:54:52;100533.28;;;2.63;96.21
19114;BME280;9689;51.052;13.772;2023-11-21T17:59:53;100538.31;;;2.57;96.10
19114;BME280;9689;51.052;13.772;2023-11-21T18:04:55;100541.03;;;2.66;94.86
19114;BME280;9689;51.052;13.772;2023-11-21T18:09:59;100546.88;;;2.54;94.11
19114;BME280;9689;51.052;13.772;2023-11-21T18:15:00;100551.88;;;2.46;95.13
19114;BME280;9689;51.052;13.772;2023-11-21T18:20:03;100559.31;;;2.31;95.46
19114;BME280;9689;51.052;13.772;2023-11-21T18:25:05;100572.38;;;2.42;94.97
19114;BME280;9689;51.052;13.772;2023-11-21T18:30:07;100581.91;;;2.47;95.26
19114;BME280;9689;51.052;13.772;2023-11-21T18:35:09;100590.47;;;2.46;94.08
19114;BME280;9689;51.052;13.772;2023-11-21T18:40:11;100610.22;;;2.49;93.28
19114;BME280;9689;51.052;13.772;2023-11-21T18:45:12;100611.03;;;2.46;93.86
19114;BME280;9689;51.052;13.772;2023-11-21T18:50:14;100626.38;;;2.42;92.45
19114;BME280;9689;51.052;13.772;2023-11-21T18:55:17;100630.78;;;2.49;93.17
19114;BME280;9689;51.052;13.772;2023-11-21T19:00:19;100644.59;;;2.52;92.06
19114;BME280;9689;51.052;13.772;2023-11-21T19:05:21;100636.47;;;2.31;91.96
19114;BME280;9689;51.052;13.772;2023-11-21T19:10:22;100644.97;;;2.27;91.19
19114;BME280;9689;51.052;13.772;2023-11-21T19:15:26;100641.31;;;2.16;91.15
19114;BME280;9689;51.052;13.772;2023-11-21T19:20:29;100660.47;;;2.32;91.42
19114;BME280;9689;51.052;13.772;2023-11-21T19:25:31;100666.50;;;2.34;90.37
19114;BME280;9689;51.052;13.772;2023-11-21T19:30:33;100678.31;;;2.24;90.91
19114;BME280;9689;51.052;13.772;2023-11-21T19:35:37;100672.97;;;2.13;89.69
19114;BME280;9689;51.052;13.772;2023-11-21T19:40:40;100685.00;;;2.16;88.44
19114;BME280;9689;51.052;13.772;2023-11-21T19:45:43;100694.84;;;2.35;89.33
19114;BME280;9689;51.052;13.772;2023-11-21T19:50:45;100693.69;;;2.19;88.59
19114;BME280;9689;51.052;13.772;2023-11-21T19:55:48;100718.13;;;2.01;88.33
19114;BME280;9689;51.052;13.772;2023-11-21T20:00:50;100719.09;;;2.06;89.40
19114;BME280;9689;51.052;13.772;2023-11-21T20:05:52;100728.56;;;2.08;89.58
19114;BME280;9689;51.052;13.772;2023-11-21T20:10:53;100741.34;;;2.05;90.85
19114;BME280;9689;51.052;13.772;2023-11-21T20:15:54;100742.06;;;1.98;90.93
19114;BME280;9689;51.052;13.772;2023-11-21T20:20:56;100748.81;;;1.93;90.61
19114;BME280;9689;51.052;13.772;2023-11-21T20:25:57;100756.50;;;1.91;90.16
19114;BME280;9689;51.052;13.772;2023-11-21T20:30:58;100770.06;;;1.86;91.35
19114;BME280;9689;51.052;13.772;2023-11-21T20:36:00;100778.69;;;1.89;91.30
19114;BME280;9689;51.052;13.772;2023-11-21T20:41:01;100784.50;;;1.81;92.29
19114;BME280;9689;51.052;13.772;2023-11-21T20:46:04;100808.16;;;1.66;92.35
19114;BME280;9689;51.052;13.772;2023-11-21T20:51:07;100803.56;;;1.54;93.05
19114;BME280;9689;51.052;13.772;2023-11-21T20:56:08;100809.34;;;1.46;93.94
19114;BME280;9689;51.052;13.772;2023-11-21T21:01:09;100814.78;;;1.23;95.51
19114;BME280;9689;51.052;13.772;2023-11-21T21:06:12;100826.63;;;1.20;94.51
19114;BME280;9689;51.052;13.772;2023-11-21T21:11:17;100821.47;;;1.18;94.96
19114;BME280;9689;51.052;13.772;2023-11-21T21:16:19;100827.03;;;1.02;93.44
19114;BME280;9689;51.052;13.772;2023-11-21T21:21:26;100824.50;;;1.03;94.14
19114;BME280;9689;51.052;13.772;2023-11-21T21:26:32;100844.91;;;0.99;93.74
19114;BME280;9689;51.052;13.772;2023-11-21T21:31:34;100845.00;;;1.02;93.35
19114;BME280;9689;51.052;13.772;2023-11-21T21:36:37;100854.53;;;1.06;92.19
19114;BME280;9689;51.052;13.772;2023-11-21T21:41:42;100855.91;;;0.95;93.46
19114;BME280;9689;51.052;13.772;2023-11-21T21:46:43;100872.50;;;1.06;93.04
19114;BME280;9689;51.052;13.772;2023-11-21T21:51:45;100874.13;;;1.04;92.93
19114;BME280;9689;51.052;13.772;2023-11-21T21:56:46;100886.03;;;1.02;94.45
19114;BME280;9689;51.052;13.772;2023-11-21T22:01:47;100880.91;;;1.02;94.40
19114;BME280;9689;51.052;13.772;2023-11-21T22:06:49;100895.63;;;1.07;94.14
19114;BME280;9689;51.052;13.772;2023-11-21T22:11:50;100901.44;;;1.02;94.04
19114;BME280;9689;51.052;13.772;2023-11-21T22:16:53;100902.59;;;0.81;94.41
19114;BME280;9689;51.052;13.772;2023-11-21T22:21:55;100911.97;;;0.81;95.71
19114;BME280;9689;51.052;13.772;2023-11-21T22:26:56;100906.19;;;0.88;95.78
19114;BME280;9689;51.052;13.772;2023-11-21T22:31:57;100903.25;;;0.76;95.22
19114;BME280;9689;51.052;13.772;2023-11-21T22:36:59;100903.38;;;0.79;94.82
19114;BME280;9689;51.052;13.772;2023-11-21T22:42:00;100910.19;;;0.78;95.76
19114;BME280;9689;51.052;13.772;2023-11-21T22:47:00;100916.53;;;0.91;94.96
19114;BME280;9689;51.052;13.772;2023-11-21T22:52:05;100923.16;;;0.83;94.43
19114;BME280;9689;51.052;13.772;2023-11-21T22:57:06;100917.97;;;0.81;95.90
19114;BME280;9689;51.052;13.772;2023-11-21T23:02:07;100915.19;;;0.74;96.18
19114;BME280;9689;51.052;13.772;2023-11-21T23:07:11;100917.75;;;0.74;95.55
19114;BME280;9689;51.052;13.772;2023-11-21T23:12:12;100918.56;;;0.73;94.83
19114;BME280;9689;51.052;13.772;2023-11-21T23:17:13;100925.28;;;0.69;95.21
19114;BME280;9689;51.052;13.772;2023-11-21T23:22:15;100940.78;;;0.72;95.33
19114;BME280;9689;51.052;13.772;2023-11-21T23:27:16;100942.50;;;0.72;94.47
19114;BME280;9689;51.052;13.772;2023-11-21T23:32:17;100938.88;;;0.65;94.91
19114;BME280;9689;51.052;13.772;2023-11-21T23:37:20;100948.38;;;0.69;94.54
19114;BME280;9689;51.052;13.772;2023-11-21T23:42:21;100958.91;;;0.50;94.82
19114;BME280;9689;51.052;13.772;2023-11-21T23:47:22;100957.69;;;0.66;94.86
19114;BME280;9689;51.052;13.772;2023-11-21T23:52:24;100958.56;;;0.66;94.97
19114;BME280;9689;51.052;13.772;2023-11-21T23:57:26;100961.72;;;0.57;95.48
